sensor_id;sensor_type;location;lat;lon;timestamp;P1;durP1;ratioP1;P2;durP2;ratioP2
57023;SDS011;42916;54.346;18.562;2024-02-15T00:00:37;29.60;;;13.90;;
57023;SDS011;42916;54.346;18.562;2024-02-15T00:03:24;26.20;;;14.70;;
57023;SDS011;42916;54.346;18.562;2024-02-15T00:05:51;27.50;;;15.00;;
57023;SDS011;42916;54.346;18.562;2024-02-15T00:08:19;25.60;;;13.90;;
57023;SDS011;42916;54.346;18.562;2024-02-15T00:10:47;27.70;;;14.50;;
57023;SDS011;42916;54.346;18.562;2024-02-15T00:13:14;29.30;;;14.90;;
57023;SDS011;42916;54.346;18.562;2024-02-15T00:15:41;27.10;;;13.50;;
57023;SDS011;42916;54.346;18.562;2024-02-15T00:18:08;29.30;;;14.80;;
57023;SDS011;42916;54.346;18.562;2024-02-15T00:20:35;27.80;;;15.50;;
57023;SDS011;42916;54.346;18.562;2024-02-15T00:23:01;26.70;;;15.00;;
57023;SDS011;42916;54.346;18.562;2024-02-15T00:25:28;30.40;;;16.40;;
57023;SDS011;42916;54.346;18.562;2024-02-15T00:27:57;31.10;;;16.70;;
57023;SDS011;42916;54.346;18.562;2024-02-15T00:30:23;29.50;;;15.50;;
57023;SDS011;42916;54.346;18.562;2024-02-15T00:32:50;29.60;;;16.80;;
57023;SDS011;42916;54.346;18.562;2024-02-15T00:35:17;33.00;;;15.50;;
57023;SDS011;42916;54.346;18.562;2024-02-15T00:37:45;29.40;;;15.40;;
57023;SDS011;42916;54.346;18.562;2024-02-15T00:40:11;29.70;;;15.80;;
57023;SDS011;42916;54.346;18.562;2024-02-15T00:42:38;29.40;;;15.40;;
57023;SDS011;42916;54.346;18.562;2024-02-15T00:45:05;28.40;;;14.70;;
57023;SDS011;42916;54.346;18.562;2024-02-15T00:47:36;33.80;;;16.40;;
57023;SDS011;42916;54.346;18.562;2024-02-15T00:50:04;30.90;;;15.80;;
57023;SDS011;42916;54.346;18.562;2024-02-15T00:52:31;30.20;;;16.20;;
57023;SDS011;42916;54.346;18.562;2024-02-15T00:54:58;29.40;;;16.20;;
57023;SDS011;42916;54.346;18.562;2024-02-15T00:57:25;30.30;;;15.90;;
57023;SDS011;42916;54.346;18.562;2024-02-15T00:59:52;30.40;;;15.90;;
57023;SDS011;42916;54.346;18.562;2024-02-15T01:02:18;29.20;;;15.40;;
57023;SDS011;42916;54.346;18.562;2024-02-15T01:04:45;35.90;;;17.00;;
57023;SDS011;42916;54.346;18.562;2024-02-15T01:07:12;34.00;;;16.20;;
57023;SDS011;42916;54.346;18.562;2024-02-15T01:09:40;33.30;;;15.70;;
57023;SDS011;42916;54.346;18.562;2024-02-15T01:12:06;32.50;;;16.70;;
57023;SDS011;42916;54.346;18.562;2024-02-15T01:14:33;34.30;;;17.00;;
57023;SDS011;42916;54.346;18.562;2024-02-15T01:17:01;30.20;;;15.20;;
57023;SDS011;42916;54.346;18.562;2024-02-15T01:19:27;33.20;;;17.00;;
57023;SDS011;42916;54.346;18.562;2024-02-15T01:21:55;29.50;;;15.40;;
57023;SDS011;42916;54.346;18.562;2024-02-15T01:24:24;33.80;;;16.80;;
57023;SDS011;42916;54.346;18.562;2024-02-15T01:26:52;33.90;;;16.50;;
57023;SDS011;42916;54.346;18.562;2024-02-15T01:29:19;38.70;;;17.60;;
57023;SDS011;42916;54.346;18.562;2024-02-15T01:31:47;30.90;;;15.00;;
57023;SDS011;42916;54.346;18.562;2024-02-15T01:34:13;34.70;;;16.20;;
57023;SDS011;42916;54.346;18.562;2024-02-15T01:36:40;32.60;;;16.40;;
57023;SDS011;42916;54.346;18.562;2024-02-15T01:39:07;32.60;;;16.40;;
57023;SDS011;42916;54.346;18.562;2024-02-15T01:41:34;33.20;;;17.00;;
57023;SDS011;42916;54.346;18.562;2024-02-15T01:44:01;34.10;;;16.40;;
57023;SDS011;42916;54.346;18.562;2024-02-15T01:46:28;36.00;;;17.80;;
57023;SDS011;42916;54.346;18.562;2024-02-15T01:48:56;32.10;;;16.70;;
57023;SDS011;42916;54.346;18.562;2024-02-15T01:51:23;34.80;;;17.10;;
57023;SDS011;42916;54.346;18.562;2024-02-15T01:53:52;34.30;;;16.90;;
57023;SDS011;42916;54.346;18.562;2024-02-15T01:56:19;35.60;;;18.70;;
57023;SDS011;42916;54.346;18.562;2024-02-15T01:58:49;32.00;;;17.30;;
57023;SDS011;42916;54.346;18.562;2024-02-15T02:01:16;35.50;;;17.50;;
57023;SDS011;42916;54.346;18.562;2024-02-15T02:03:43;34.50;;;17.60;;
57023;SDS011;42916;54.346;18.562;2024-02-15T02:06:10;41.50;;;18.30;;
57023;SDS011;42916;54.346;18.562;2024-02-15T02:08:38;34.40;;;17.70;;
57023;SDS011;42916;54.346;18.562;2024-02-15T02:11:04;31.00;;;17.60;;
57023;SDS011;42916;54.346;18.562;2024-02-15T02:13:31;33.80;;;17.00;;
57023;SDS011;42916;54.346;18.562;2024-02-15T02:15:59;37.70;;;17.50;;
57023;SDS011;42916;54.346;18.562;2024-02-15T02:18:26;36.50;;;16.60;;
57023;SDS011;42916;54.346;18.562;2024-02-15T02:20:53;41.90;;;18.70;;
57023;SDS011;42916;54.346;18.562;2024-02-15T02:23:21;37.80;;;18.70;;
57023;SDS011;42916;54.346;18.562;2024-02-15T02:25:52;39.40;;;18.60;;
57023;SDS011;42916;54.346;18.562;2024-02-15T02:28:22;34.50;;;16.80;;
57023;SDS011;42916;54.346;18.562;2024-02-15T02:30:48;37.60;;;17.90;;
57023;SDS011;42916;54.346;18.562;2024-02-15T02:33:16;31.20;;;17.30;;
57023;SDS011;42916;54.346;18.562;2024-02-15T02:35:48;34.40;;;16.20;;
57023;SDS011;42916;54.346;18.562;2024-02-15T02:38:15;39.50;;;17.70;;
57023;SDS011;42916;54.346;18.562;2024-02-15T02:40:42;34.60;;;17.00;;
57023;SDS011;42916;54.346;18.562;2024-02-15T02:43:08;40.00;;;18.30;;
57023;SDS011;42916;54.346;18.562;2024-02-15T02:45:36;35.20;;;17.70;;
57023;SDS011;42916;54.346;18.562;2024-02-15T02:48:03;39.60;;;18.30;;
57023;SDS011;42916;54.346;18.562;2024-02-15T02:50:30;36.60;;;17.20;;
57023;SDS011;42916;54.346;18.562;2024-02-15T02:52:56;31.50;;;17.00;;
57023;SDS011;42916;54.346;18.562;2024-02-15T02:55:23;40.70;;;19.40;;
57023;SDS011;42916;54.346;18.562;2024-02-15T02:57:50;36.30;;;16.80;;
57023;SDS011;42916;54.346;18.562;2024-02-15T03:00:17;32.90;;;17.40;;
57023;SDS011;42916;54.346;18.562;2024-02-15T03:02:45;35.20;;;16.90;;
57023;SDS011;42916;54.346;18.562;2024-02-15T03:05:12;38.20;;;18.60;;
57023;SDS011;42916;54.346;18.562;2024-02-15T03:07:40;34.40;;;18.20;;
57023;SDS011;42916;54.346;18.562;2024-02-15T03:10:07;37.40;;;19.10;;
57023;SDS011;42916;54.346;18.562;2024-02-15T03:12:38;34.60;;;17.50;;
57023;SDS011;42916;54.346;18.562;2024-02-15T03:15:06;40.00;;;18.00;;
57023;SDS011;42916;54.346;18.562;2024-02-15T03:17:38;47.70;;;19.30;;
57023;SDS011;42916;54.346;18.562;2024-02-15T03:20:06;41.10;;;20.00;;
57023;SDS011;42916;54.346;18.562;2024-02-15T03:22:38;41.50;;;20.10;;
57023;SDS011;42916;54.346;18.562;2024-02-15T03:25:05;38.70;;;18.70;;
57023;SDS011;42916;54.346;18.562;2024-02-15T03:27:35;38.90;;;19.50;;
57023;SDS011;42916;54.346;18.562;2024-02-15T03:30:03;46.00;;;21.70;;
57023;SDS011;42916;54.346;18.562;2024-02-15T03:32:30;41.30;;;19.80;;
57023;SDS011;42916;54.346;18.562;2024-02-15T03:34:57;42.10;;;20.30;;
57023;SDS011;42916;54.346;18.562;2024-02-15T03:37:25;33.80;;;18.40;;
57023;SDS011;42916;54.346;18.562;2024-02-15T03:39:51;44.00;;;19.50;;
57023;SDS011;42916;54.346;18.562;2024-02-15T03:42:18;42.40;;;19.70;;
57023;SDS011;42916;54.346;18.562;2024-02-15T03:44:45;42.90;;;19.10;;
57023;SDS011;42916;54.346;18.562;2024-02-15T03:47:11;40.80;;;18.90;;
57023;SDS011;42916;54.346;18.562;2024-02-15T03:49:40;40.30;;;19.10;;
57023;SDS011;42916;54.346;18.562;2024-02-15T03:52:08;40.00;;;19.20;;
57023;SDS011;42916;54.346;18.562;2024-02-15T03:54:37;40.90;;;19.10;;
57023;SDS011;42916;54.346;18.562;2024-02-15T03:57:03;36.10;;;18.00;;
57023;SDS011;42916;54.346;18.562;2024-02-15T03:59:32;38.90;;;19.60;;
57023;SDS011;42916;54.346;18.562;2024-02-15T04:02:01;40.70;;;18.80;;
57023;SDS011;42916;54.346;18.562;2024-02-15T04:04:29;37.50;;;18.20;;
57023;SDS011;42916;54.346;18.562;2024-02-15T04:06:56;38.60;;;18.40;;
57023;SDS011;42916;54.346;18.562;2024-02-15T04:09:23;42.40;;;18.90;;
57023;SDS011;42916;54.346;18.562;2024-02-15T04:11:50;43.20;;;18.60;;
57023;SDS011;42916;54.346;18.562;2024-02-15T04:16:46;41.80;;;19.30;;
57023;SDS011;42916;54.346;18.562;2024-02-15T04:19:13;44.40;;;19.80;;
57023;SDS011;42916;54.346;18.562;2024-02-15T04:21:40;47.30;;;19.50;;
57023;SDS011;42916;54.346;18.562;2024-02-15T04:24:07;48.60;;;18.80;;
57023;SDS011;42916;54.346;18.562;2024-02-15T04:26:33;50.90;;;19.80;;
57023;SDS011;42916;54.346;18.562;2024-02-15T04:29:00;50.80;;;20.50;;
57023;SDS011;42916;54.346;18.562;2024-02-15T04:31:27;50.80;;;19.20;;
57023;SDS011;42916;54.346;18.562;2024-02-15T04:33:54;48.30;;;19.60;;
57023;SDS011;42916;54.346;18.562;2024-02-15T04:36:22;47.80;;;21.10;;
57023;SDS011;42916;54.346;18.562;2024-02-15T04:38:52;40.40;;;18.00;;
57023;SDS011;42916;54.346;18.562;2024-02-15T04:41:19;38.60;;;17.90;;
57023;SDS011;42916;54.346;18.562;2024-02-15T04:43:46;34.00;;;16.10;;
57023;SDS011;42916;54.346;18.562;2024-02-15T04:46:13;40.70;;;18.70;;
57023;SDS011;42916;54.346;18.562;2024-02-15T04:48:43;39.30;;;18.30;;
57023;SDS011;42916;54.346;18.562;2024-02-15T04:51:10;36.30;;;18.10;;
57023;SDS011;42916;54.346;18.562;2024-02-15T04:53:37;36.10;;;17.40;;
57023;SDS011;42916;54.346;18.562;2024-02-15T04:56:05;36.40;;;15.50;;
57023;SDS011;42916;54.346;18.562;2024-02-15T04:58:40;36.00;;;15.30;;
57023;SDS011;42916;54.346;18.562;2024-02-15T05:01:14;39.60;;;16.40;;
57023;SDS011;42916;54.346;18.562;2024-02-15T05:03:42;33.50;;;16.90;;
57023;SDS011;42916;54.346;18.562;2024-02-15T05:06:09;34.60;;;15.90;;
57023;SDS011;42916;54.346;18.562;2024-02-15T05:08:39;32.80;;;16.50;;
57023;SDS011;42916;54.346;18.562;2024-02-15T05:11:09;33.80;;;16.10;;
57023;SDS011;42916;54.346;18.562;2024-02-15T05:13:46;36.70;;;15.80;;
57023;SDS011;42916;54.346;18.562;2024-02-15T05:16:13;31.00;;;15.20;;
57023;SDS011;42916;54.346;18.562;2024-02-15T05:18:39;31.80;;;15.90;;
57023;SDS011;42916;54.346;18.562;2024-02-15T05:21:06;29.10;;;14.70;;
57023;SDS011;42916;54.346;18.562;2024-02-15T05:23:36;35.90;;;15.80;;
57023;SDS011;42916;54.346;18.562;2024-02-15T05:26:04;31.20;;;15.00;;
57023;SDS011;42916;54.346;18.562;2024-02-15T05:28:30;35.30;;;16.30;;
57023;SDS011;42916;54.346;18.562;2024-02-15T05:33:40;40.00;;;16.10;;
57023;SDS011;42916;54.346;18.562;2024-02-15T05:36:13;39.30;;;17.80;;
57023;SDS011;42916;54.346;18.562;2024-02-15T05:38:40;46.60;;;20.30;;
57023;SDS011;42916;54.346;18.562;2024-02-15T05:41:07;45.50;;;17.80;;
57023;SDS011;42916;54.346;18.562;2024-02-15T05:43:34;38.50;;;18.20;;
57023;SDS011;42916;54.346;18.562;2024-02-15T05:46:03;34.00;;;18.10;;
57023;SDS011;42916;54.346;18.562;2024-02-15T05:48:30;34.40;;;16.20;;
57023;SDS011;42916;54.346;18.562;2024-02-15T05:50:57;37.60;;;17.80;;
57023;SDS011;42916;54.346;18.562;2024-02-15T05:53:25;37.70;;;17.50;;
57023;SDS011;42916;54.346;18.562;2024-02-15T05:55:52;36.00;;;19.20;;
57023;SDS011;42916;54.346;18.562;2024-02-15T05:58:19;39.80;;;18.20;;
57023;SDS011;42916;54.346;18.562;2024-02-15T06:00:46;29.90;;;15.80;;
57023;SDS011;42916;54.346;18.562;2024-02-15T06:03:16;34.30;;;16.80;;
57023;SDS011;42916;54.346;18.562;2024-02-15T06:05:43;33.00;;;17.30;;
57023;SDS011;42916;54.346;18.562;2024-02-15T06:08:11;29.80;;;15.20;;
57023;SDS011;42916;54.346;18.562;2024-02-15T06:10:40;26.70;;;14.40;;
57023;SDS011;42916;54.346;18.562;2024-02-15T06:13:07;31.50;;;15.10;;
57023;SDS011;42916;54.346;18.562;2024-02-15T06:15:37;29.80;;;14.60;;
57023;SDS011;42916;54.346;18.562;2024-02-15T06:18:03;29.90;;;15.70;;
57023;SDS011;42916;54.346;18.562;2024-02-15T06:20:35;32.80;;;15.10;;
57023;SDS011;42916;54.346;18.562;2024-02-15T06:23:02;29.30;;;14.20;;
57023;SDS011;42916;54.346;18.562;2024-02-15T06:25:37;29.60;;;14.90;;
57023;SDS011;42916;54.346;18.562;2024-02-15T06:28:05;30.00;;;14.50;;
57023;SDS011;42916;54.346;18.562;2024-02-15T06:30:40;24.90;;;12.60;;
57023;SDS011;42916;54.346;18.562;2024-02-15T06:33:25;28.30;;;13.70;;
57023;SDS011;42916;54.346;18.562;2024-02-15T06:36:10;33.00;;;14.50;;
57023;SDS011;42916;54.346;18.562;2024-02-15T06:38:56;27.00;;;14.20;;
57023;SDS011;42916;54.346;18.562;2024-02-15T06:41:41;28.40;;;13.60;;
57023;SDS011;42916;54.346;18.562;2024-02-15T06:44:08;28.00;;;13.30;;
57023;SDS011;42916;54.346;18.562;2024-02-15T06:46:36;29.30;;;13.10;;
57023;SDS011;42916;54.346;18.562;2024-02-15T06:49:02;29.10;;;14.30;;
57023;SDS011;42916;54.346;18.562;2024-02-15T06:51:31;24.40;;;12.80;;
57023;SDS011;42916;54.346;18.562;2024-02-15T06:53:58;28.60;;;14.50;;
57023;SDS011;42916;54.346;18.562;2024-02-15T06:56:24;29.80;;;14.90;;
57023;SDS011;42916;54.346;18.562;2024-02-15T06:58:51;24.40;;;12.40;;
57023;SDS011;42916;54.346;18.562;2024-02-15T07:01:18;29.40;;;14.80;;
57023;SDS011;42916;54.346;18.562;2024-02-15T07:03:44;25.90;;;13.50;;
57023;SDS011;42916;54.346;18.562;2024-02-15T07:06:11;26.00;;;13.60;;
57023;SDS011;42916;54.346;18.562;2024-02-15T07:08:45;27.40;;;14.20;;
57023;SDS011;42916;54.346;18.562;2024-02-15T07:11:33;24.20;;;12.60;;
57023;SDS011;42916;54.346;18.562;2024-02-15T07:14:27;27.50;;;12.40;;
57023;SDS011;42916;54.346;18.562;2024-02-15T07:17:13;25.70;;;12.30;;
57023;SDS011;42916;54.346;18.562;2024-02-15T07:19:45;22.50;;;13.10;;
57023;SDS011;42916;54.346;18.562;2024-02-15T07:22:26;25.40;;;12.50;;
57023;SDS011;42916;54.346;18.562;2024-02-15T07:24:53;29.50;;;14.30;;
57023;SDS011;42916;54.346;18.562;2024-02-15T07:27:25;34.60;;;15.80;;
57023;SDS011;42916;54.346;18.562;2024-02-15T07:30:02;38.40;;;15.80;;
57023;SDS011;42916;54.346;18.562;2024-02-15T07:32:39;32.50;;;15.10;;
57023;SDS011;42916;54.346;18.562;2024-02-15T07:35:09;27.70;;;14.30;;
57023;SDS011;42916;54.346;18.562;2024-02-15T07:37:36;27.80;;;14.10;;
57023;SDS011;42916;54.346;18.562;2024-02-15T07:40:03;29.90;;;14.60;;
57023;SDS011;42916;54.346;18.562;2024-02-15T07:42:30;29.70;;;13.30;;
57023;SDS011;42916;54.346;18.562;2024-02-15T07:44:57;28.90;;;14.50;;
57023;SDS011;42916;54.346;18.562;2024-02-15T07:47:24;27.70;;;14.30;;
57023;SDS011;42916;54.346;18.562;2024-02-15T07:49:51;27.60;;;13.70;;
57023;SDS011;42916;54.346;18.562;2024-02-15T07:52:17;26.40;;;13.10;;
57023;SDS011;42916;54.346;18.562;2024-02-15T07:54:44;24.30;;;13.00;;
57023;SDS011;42916;54.346;18.562;2024-02-15T07:57:11;23.70;;;13.20;;
57023;SDS011;42916;54.346;18.562;2024-02-15T07:59:38;27.50;;;12.80;;
57023;SDS011;42916;54.346;18.562;2024-02-15T08:02:05;23.00;;;12.50;;
57023;SDS011;42916;54.346;18.562;2024-02-15T08:04:32;24.90;;;11.80;;
57023;SDS011;42916;54.346;18.562;2024-02-15T08:07:00;24.30;;;12.80;;
57023;SDS011;42916;54.346;18.562;2024-02-15T08:09:27;19.10;;;10.80;;
57023;SDS011;42916;54.346;18.562;2024-02-15T08:11:54;24.20;;;12.40;;
57023;SDS011;42916;54.346;18.562;2024-02-15T08:14:22;22.00;;;11.60;;
57023;SDS011;42916;54.346;18.562;2024-02-15T08:16:49;20.90;;;11.10;;
57023;SDS011;42916;54.346;18.562;2024-02-15T08:19:16;22.30;;;11.60;;
57023;SDS011;42916;54.346;18.562;2024-02-15T08:21:42;22.50;;;11.50;;
57023;SDS011;42916;54.346;18.562;2024-02-15T08:24:12;25.60;;;12.00;;
57023;SDS011;42916;54.346;18.562;2024-02-15T08:26:39;24.00;;;10.00;;
57023;SDS011;42916;54.346;18.562;2024-02-15T08:29:07;21.10;;;10.30;;
57023;SDS011;42916;54.346;18.562;2024-02-15T08:31:34;23.90;;;11.30;;
57023;SDS011;42916;54.346;18.562;2024-02-15T08:34:02;22.50;;;11.20;;
57023;SDS011;42916;54.346;18.562;2024-02-15T08:36:32;19.60;;;11.00;;
57023;SDS011;42916;54.346;18.562;2024-02-15T08:38:58;18.40;;;9.90;;
57023;SDS011;42916;54.346;18.562;2024-02-15T08:41:27;18.90;;;10.10;;
57023;SDS011;42916;54.346;18.562;2024-02-15T08:43:53;16.90;;;10.20;;
57023;SDS011;42916;54.346;18.562;2024-02-15T08:48:51;20.30;;;9.60;;
57023;SDS011;42916;54.346;18.562;2024-02-15T08:51:18;20.00;;;10.10;;
57023;SDS011;42916;54.346;18.562;2024-02-15T08:56:14;20.80;;;9.80;;
57023;SDS011;42916;54.346;18.562;2024-02-15T08:58:41;18.20;;;9.90;;
57023;SDS011;42916;54.346;18.562;2024-02-15T09:01:09;20.70;;;9.90;;
57023;SDS011;42916;54.346;18.562;2024-02-15T09:03:35;20.60;;;9.30;;
57023;SDS011;42916;54.346;18.562;2024-02-15T09:06:02;18.00;;;9.50;;
57023;SDS011;42916;54.346;18.562;2024-02-15T09:08:31;20.10;;;9.60;;
57023;SDS011;42916;54.346;18.562;2024-02-15T09:10:58;16.90;;;9.20;;
57023;SDS011;42916;54.346;18.562;2024-02-15T09:13:24;19.10;;;9.00;;
57023;SDS011;42916;54.346;18.562;2024-02-15T09:15:51;16.40;;;8.50;;
57023;SDS011;42916;54.346;18.562;2024-02-15T09:18:18;14.20;;;8.80;;
57023;SDS011;42916;54.346;18.562;2024-02-15T09:20:46;18.90;;;10.20;;
57023;SDS011;42916;54.346;18.562;2024-02-15T09:23:15;20.00;;;10.00;;
57023;SDS011;42916;54.346;18.562;2024-02-15T09:25:42;15.90;;;8.90;;
57023;SDS011;42916;54.346;18.562;2024-02-15T09:28:11;17.60;;;9.40;;
57023;SDS011;42916;54.346;18.562;2024-02-15T09:30:40;15.20;;;8.10;;
57023;SDS011;42916;54.346;18.562;2024-02-15T09:33:07;15.40;;;9.50;;
57023;SDS011;42916;54.346;18.562;2024-02-15T09:35:34;13.90;;;8.50;;
57023;SDS011;42916;54.346;18.562;2024-02-15T09:38:01;16.10;;;8.90;;
57023;SDS011;42916;54.346;18.562;2024-02-15T09:40:28;16.80;;;8.50;;
57023;SDS011;42916;54.346;18.562;2024-02-15T09:42:55;13.10;;;7.80;;
57023;SDS011;42916;54.346;18.562;2024-02-15T09:45:22;19.00;;;9.90;;
57023;SDS011;42916;54.346;18.562;2024-02-15T09:47:51;14.30;;;8.70;;
57023;SDS011;42916;54.346;18.562;2024-02-15T09:50:19;14.80;;;9.20;;
57023;SDS011;42916;54.346;18.562;2024-02-15T09:52:49;14.40;;;8.40;;
57023;SDS011;42916;54.346;18.562;2024-02-15T09:55:17;15.80;;;9.10;;
57023;SDS011;42916;54.346;18.562;2024-02-15T09:57:45;16.50;;;8.80;;
57023;SDS011;42916;54.346;18.562;2024-02-15T10:00:15;15.00;;;8.90;;
57023;SDS011;42916;54.346;18.562;2024-02-15T10:02:43;14.70;;;9.30;;
57023;SDS011;42916;54.346;18.562;2024-02-15T10:05:11;15.70;;;9.40;;
57023;SDS011;42916;54.346;18.562;2024-02-15T10:07:42;16.60;;;9.10;;
57023;SDS011;42916;54.346;18.562;2024-02-15T10:12:53;12.90;;;8.30;;
57023;SDS011;42916;54.346;18.562;2024-02-15T10:15:28;17.30;;;9.40;;
57023;SDS011;42916;54.346;18.562;2024-02-15T10:18:05;15.40;;;8.50;;
57023;SDS011;42916;54.346;18.562;2024-02-15T10:20:34;13.80;;;8.80;;
57023;SDS011;42916;54.346;18.562;2024-02-15T10:25:35;13.20;;;8.40;;
57023;SDS011;42916;54.346;18.562;2024-02-15T10:30:34;11.50;;;7.30;;
57023;SDS011;42916;54.346;18.562;2024-02-15T10:33:02;15.10;;;8.60;;
57023;SDS011;42916;54.346;18.562;2024-02-15T10:35:30;14.60;;;8.30;;
57023;SDS011;42916;54.346;18.562;2024-02-15T10:38:07;13.80;;;8.20;;
57023;SDS011;42916;54.346;18.562;2024-02-15T10:40:36;15.50;;;9.40;;
57023;SDS011;42916;54.346;18.562;2024-02-15T10:43:03;14.20;;;8.30;;
57023;SDS011;42916;54.346;18.562;2024-02-15T10:45:35;13.30;;;8.60;;
57023;SDS011;42916;54.346;18.562;2024-02-15T10:48:12;14.70;;;9.10;;
57023;SDS011;42916;54.346;18.562;2024-02-15T10:50:39;13.00;;;8.10;;
57023;SDS011;42916;54.346;18.562;2024-02-15T11:01:49;16.10;;;9.70;;
57023;SDS011;42916;54.346;18.562;2024-02-15T11:04:21;16.90;;;9.70;;
57023;SDS011;42916;54.346;18.562;2024-02-15T11:06:48;15.10;;;9.90;;
57023;SDS011;42916;54.346;18.562;2024-02-15T11:09:17;16.30;;;10.20;;
57023;SDS011;42916;54.346;18.562;2024-02-15T11:11:44;13.40;;;8.60;;
57023;SDS011;42916;54.346;18.562;2024-02-15T11:14:22;19.50;;;10.20;;
57023;SDS011;42916;54.346;18.562;2024-02-15T11:16:58;15.60;;;10.10;;
57023;SDS011;42916;54.346;18.562;2024-02-15T11:22:09;17.90;;;10.40;;
57023;SDS011;42916;54.346;18.562;2024-02-15T11:24:45;16.20;;;10.20;;
57023;SDS011;42916;54.346;18.562;2024-02-15T11:27:13;16.00;;;9.70;;
57023;SDS011;42916;54.346;18.562;2024-02-15T11:35:24;14.70;;;9.50;;
57023;SDS011;42916;54.346;18.562;2024-02-15T11:37:55;18.60;;;10.80;;
57023;SDS011;42916;54.346;18.562;2024-02-15T11:40:28;18.90;;;11.60;;
57023;SDS011;42916;54.346;18.562;2024-02-15T11:43:45;19.60;;;11.60;;
57023;SDS011;42916;54.346;18.562;2024-02-15T11:46:21;18.40;;;10.80;;
57023;SDS011;42916;54.346;18.562;2024-02-15T11:48:51;19.50;;;11.80;;
57023;SDS011;42916;54.346;18.562;2024-02-15T11:51:26;18.60;;;11.10;;
57023;SDS011;42916;54.346;18.562;2024-02-15T11:54:06;19.50;;;12.20;;
57023;SDS011;42916;54.346;18.562;2024-02-15T11:59:10;16.40;;;9.80;;
57023;SDS011;42916;54.346;18.562;2024-02-15T12:01:45;20.00;;;11.30;;
57023;SDS011;42916;54.346;18.562;2024-02-15T12:04:47;17.90;;;10.40;;
57023;SDS011;42916;54.346;18.562;2024-02-15T12:07:32;18.10;;;10.70;;
57023;SDS011;42916;54.346;18.562;2024-02-15T12:10:18;16.00;;;9.30;;
57023;SDS011;42916;54.346;18.562;2024-02-15T12:13:04;17.60;;;10.40;;
57023;SDS011;42916;54.346;18.562;2024-02-15T12:15:58;16.80;;;9.60;;
57023;SDS011;42916;54.346;18.562;2024-02-15T12:18:44;16.90;;;10.30;;
57023;SDS011;42916;54.346;18.562;2024-02-15T12:21:15;19.00;;;11.80;;
57023;SDS011;42916;54.346;18.562;2024-02-15T12:23:44;18.20;;;11.10;;
57023;SDS011;42916;54.346;18.562;2024-02-15T12:26:12;16.60;;;10.40;;
57023;SDS011;42916;54.346;18.562;2024-02-15T12:28:41;16.60;;;10.70;;
57023;SDS011;42916;54.346;18.562;2024-02-15T12:31:08;19.90;;;11.40;;
57023;SDS011;42916;54.346;18.562;2024-02-15T12:33:36;14.00;;;9.30;;
57023;SDS011;42916;54.346;18.562;2024-02-15T12:36:04;15.20;;;9.10;;
57023;SDS011;42916;54.346;18.562;2024-02-15T12:38:33;14.70;;;9.00;;
57023;SDS011;42916;54.346;18.562;2024-02-15T12:41:04;14.80;;;9.20;;
57023;SDS011;42916;54.346;18.562;2024-02-15T12:43:45;14.90;;;8.90;;
57023;SDS011;42916;54.346;18.562;2024-02-15T12:46:17;14.00;;;9.20;;
57023;SDS011;42916;54.346;18.562;2024-02-15T12:48:44;13.60;;;9.00;;
57023;SDS011;42916;54.346;18.562;2024-02-15T12:51:14;13.30;;;9.20;;
57023;SDS011;42916;54.346;18.562;2024-02-15T12:53:42;12.80;;;8.50;;
57023;SDS011;42916;54.346;18.562;2024-02-15T12:56:09;12.70;;;8.50;;
57023;SDS011;42916;54.346;18.562;2024-02-15T12:58:36;13.80;;;8.50;;
57023;SDS011;42916;54.346;18.562;2024-02-15T13:01:02;11.50;;;7.80;;
57023;SDS011;42916;54.346;18.562;2024-02-15T13:03:30;12.90;;;8.20;;
57023;SDS011;42916;54.346;18.562;2024-02-15T13:05:58;15.40;;;8.90;;
57023;SDS011;42916;54.346;18.562;2024-02-15T13:08:24;13.50;;;9.00;;
57023;SDS011;42916;54.346;18.562;2024-02-15T13:10:51;12.10;;;8.50;;
57023;SDS011;42916;54.346;18.562;2024-02-15T13:13:18;15.10;;;10.40;;
57023;SDS011;42916;54.346;18.562;2024-02-15T13:15:47;12.90;;;8.90;;
57023;SDS011;42916;54.346;18.562;2024-02-15T13:18:14;13.10;;;8.30;;
57023;SDS011;42916;54.346;18.562;2024-02-15T13:20:41;10.70;;;7.60;;
57023;SDS011;42916;54.346;18.562;2024-02-15T13:23:09;10.10;;;7.00;;
57023;SDS011;42916;54.346;18.562;2024-02-15T13:25:51;11.50;;;7.50;;
57023;SDS011;42916;54.346;18.562;2024-02-15T13:28:19;13.00;;;7.70;;
57023;SDS011;42916;54.346;18.562;2024-02-15T13:30:46;12.80;;;8.20;;
57023;SDS011;42916;54.346;18.562;2024-02-15T13:35:45;12.40;;;7.70;;
57023;SDS011;42916;54.346;18.562;2024-02-15T13:38:11;11.90;;;6.60;;
57023;SDS011;42916;54.346;18.562;2024-02-15T13:40:54;9.40;;;6.80;;
57023;SDS011;42916;54.346;18.562;2024-02-15T13:43:23;11.50;;;6.90;;
57023;SDS011;42916;54.346;18.562;2024-02-15T13:45:53;9.20;;;6.80;;
57023;SDS011;42916;54.346;18.562;2024-02-15T13:48:22;9.80;;;6.60;;
57023;SDS011;42916;54.346;18.562;2024-02-15T13:50:53;9.60;;;6.70;;
57023;SDS011;42916;54.346;18.562;2024-02-15T13:53:21;10.00;;;6.90;;
57023;SDS011;42916;54.346;18.562;2024-02-15T13:55:48;9.00;;;6.40;;
57023;SDS011;42916;54.346;18.562;2024-02-15T13:58:16;7.30;;;5.80;;
57023;SDS011;42916;54.346;18.562;2024-02-15T14:00:47;9.50;;;5.80;;
57023;SDS011;42916;54.346;18.562;2024-02-15T14:03:15;8.70;;;6.00;;
57023;SDS011;42916;54.346;18.562;2024-02-15T14:05:43;8.10;;;5.40;;
57023;SDS011;42916;54.346;18.562;2024-02-15T14:08:11;9.70;;;6.20;;
57023;SDS011;42916;54.346;18.562;2024-02-15T14:10:38;9.10;;;5.20;;
57023;SDS011;42916;54.346;18.562;2024-02-15T14:13:06;9.20;;;6.10;;
57023;SDS011;42916;54.346;18.562;2024-02-15T14:15:35;10.00;;;5.50;;
57023;SDS011;42916;54.346;18.562;2024-02-15T14:18:10;8.90;;;5.40;;
57023;SDS011;42916;54.346;18.562;2024-02-15T14:20:41;8.80;;;6.30;;
57023;SDS011;42916;54.346;18.562;2024-02-15T14:23:22;9.10;;;6.70;;
57023;SDS011;42916;54.346;18.562;2024-02-15T14:25:53;11.20;;;6.40;;
57023;SDS011;42916;54.346;18.562;2024-02-15T14:28:20;9.70;;;6.30;;
57023;SDS011;42916;54.346;18.562;2024-02-15T14:30:51;9.30;;;6.20;;
57023;SDS011;42916;54.346;18.562;2024-02-15T14:33:39;8.80;;;5.50;;
57023;SDS011;42916;54.346;18.562;2024-02-15T14:36:28;8.70;;;5.40;;
57023;SDS011;42916;54.346;18.562;2024-02-15T14:41:24;7.40;;;4.80;;
57023;SDS011;42916;54.346;18.562;2024-02-15T14:43:53;7.40;;;5.20;;
57023;SDS011;42916;54.346;18.562;2024-02-15T14:46:23;6.90;;;5.20;;
57023;SDS011;42916;54.346;18.562;2024-02-15T14:48:51;9.70;;;6.70;;
57023;SDS011;42916;54.346;18.562;2024-02-15T14:51:18;9.00;;;6.40;;
57023;SDS011;42916;54.346;18.562;2024-02-15T14:53:47;7.90;;;5.80;;
57023;SDS011;42916;54.346;18.562;2024-02-15T14:56:17;7.70;;;5.90;;
57023;SDS011;42916;54.346;18.562;2024-02-15T14:58:44;8.30;;;5.90;;
57023;SDS011;42916;54.346;18.562;2024-02-15T15:01:10;8.10;;;5.80;;
57023;SDS011;42916;54.346;18.562;2024-02-15T15:03:39;9.40;;;6.10;;
57023;SDS011;42916;54.346;18.562;2024-02-15T15:06:07;7.30;;;5.60;;
57023;SDS011;42916;54.346;18.562;2024-02-15T15:08:53;8.80;;;6.30;;